createdAt,value
2023-05-15T00:00:18.000Z,16000.0
2023-05-15T00:01:18.000Z,16000.0
2023-05-15T00:02:19.000Z,16000.0
2023-05-15T00:03:18.000Z,16000.0
2023-05-15T00:04:18.000Z,16000.0
2023-05-15T00:05:18.000Z,16000.0
2023-05-15T00:06:18.000Z,16000.0
2023-05-15T00:07:19.000Z,16000.0
2023-05-15T00:08:18.000Z,16000.0
2023-05-15T00:09:18.000Z,16000.0
2023-05-15T00:10:17.000Z,16000.0
2023-05-15T00:11:18.000Z,16000.0
2023-05-15T00:12:18.000Z,16000.0
2023-05-15T00:13:18.000Z,16000.0
2023-05-15T00:14:18.000Z,16000.0
2023-05-15T00:15:19.000Z,16000.0
2023-05-15T00:16:18.000Z,16000.0
2023-05-15T00:17:18.000Z,16000.0
2023-05-15T00:18:18.000Z,16000.0
2023-05-15T00:19:18.000Z,16000.0
2023-05-15T00:20:19.000Z,16000.0
2023-05-15T00:21:18.000Z,16000.0
2023-05-15T00:22:18.000Z,16000.0
2023-05-15T00:23:19.000Z,16000.0
2023-05-15T00:24:18.000Z,16000.0
2023-05-15T00:25:18.000Z,16000.0
2023-05-15T00:26:17.000Z,16000.0
2023-05-15T00:27:18.000Z,16000.0
2023-05-15T00:28:18.000Z,16000.0
2023-05-15T00:29:18.000Z,16000.0
2023-05-15T00:30:18.000Z,16000.0
2023-05-15T00:31:19.000Z,16000.0
2023-05-15T00:32:18.000Z,16000.0
2023-05-15T00:33:18.000Z,16000.0
2023-05-15T00:34:17.000Z,16000.0
2023-05-15T00:35:18.000Z,16000.0
2023-05-15T00:36:18.000Z,16000.0
2023-05-15T00:37:18.000Z,16000.0
2023-05-15T00:38:18.000Z,16000.0
2023-05-15T00:39:19.000Z,16000.0
2023-05-15T00:40:18.000Z,16000.0
2023-05-15T00:41:18.000Z,16000.0
2023-05-15T00:42:18.000Z,16000.0
2023-05-15T00:43:18.000Z,16000.0
2023-05-15T00:44:19.000Z,16000.0
2023-05-15T00:45:18.000Z,16000.0
2023-05-15T00:46:18.000Z,16000.0
2023-05-15T00:47:17.000Z,16000.0
2023-05-15T00:48:18.000Z,16000.0
2023-05-15T00:49:18.000Z,16000.0
2023-05-15T00:50:18.000Z,16000.0
2023-05-15T00:51:18.000Z,16000.0
2023-05-15T00:52:19.000Z,16000.0
2023-05-15T00:53:18.000Z,16000.0
2023-05-15T00:54:18.000Z,16000.0
2023-05-15T00:55:18.000Z,16000.0
2023-05-15T00:56:18.000Z,16000.0
2023-05-15T00:57:19.000Z,16000.0
2023-05-15T00:58:18.000Z,16000.0
2023-05-15T00:59:18.000Z,16000.0
2023-05-15T01:00:17.000Z,16000.0
2023-05-15T01:01:18.000Z,16000.0
2023-05-15T01:02:18.000Z,16000.0
2023-05-15T01:03:18.000Z,16000.0
2023-05-15T01:04:18.000Z,16000.0
2023-05-15T01:05:19.000Z,16000.0
2023-05-15T01:06:18.000Z,16000.0
2023-05-15T01:07:18.000Z,16000.0
2023-05-15T01:08:18.000Z,16000.0
2023-05-15T01:09:18.000Z,16000.0
2023-05-15T01:10:19.000Z,16000.0
2023-05-15T01:11:18.000Z,16000.0
2023-05-15T01:12:18.000Z,16000.0
2023-05-15T01:13:17.000Z,16000.0
2023-05-15T01:14:18.000Z,16000.0
2023-05-15T01:15:18.000Z,16000.0
2023-05-15T01:16:18.000Z,16000.0
2023-05-15T01:17:18.000Z,16000.0
2023-05-15T01:18:19.000Z,16000.0
2023-05-15T01:19:18.000Z,16000.0
2023-05-15T01:20:18.000Z,16000.0
2023-05-15T01:21:18.000Z,16000.0
2023-05-15T01:22:18.000Z,16000.0
2023-05-15T01:23:18.000Z,16000.0
2023-05-15T01:24:17.000Z,16000.0
2023-05-15T01:25:18.000Z,16000.0
2023-05-15T01:26:18.000Z,16000.0
2023-05-15T01:27:18.000Z,16000.0
2023-05-15T01:28:18.000Z,16000.0
2023-05-15T01:29:19.000Z,16000.0
2023-05-15T01:30:18.000Z,16000.0
2023-05-15T01:31:18.000Z,16000.0
2023-05-15T01:32:18.000Z,16000.0
2023-05-15T01:33:18.000Z,16000.0
2023-05-15T01:34:18.000Z,16000.0
2023-05-15T01:35:18.000Z,16000.0
2023-05-15T01:36:18.000Z,16000.0
2023-05-15T01:37:17.000Z,16000.0
2023-05-15T01:38:18.000Z,16000.0
2023-05-15T01:39:18.000Z,16000.0
2023-05-15T01:40:18.000Z,16000.0
2023-05-15T01:41:18.000Z,16000.0
2023-05-15T01:42:19.000Z,16000.0
2023-05-15T01:43:18.000Z,16000.0
2023-05-15T01:44:18.000Z,16000.0
2023-05-15T01:45:17.000Z,16000.0
2023-05-15T01:46:18.000Z,16000.0
2023-05-15T01:47:18.000Z,16000.0
2023-05-15T01:48:18.000Z,16000.0
2023-05-15T01:49:18.000Z,16000.0
2023-05-15T01:50:17.000Z,16000.0
2023-05-15T01:51:18.000Z,16000.0
2023-05-15T01:52:18.000Z,16000.0
2023-05-15T01:53:18.000Z,16000.0
2023-05-15T01:54:18.000Z,16000.0
2023-05-15T01:55:19.000Z,16000.0
2023-05-15T01:56:18.000Z,16000.0
2023-05-15T01:57:18.000Z,16000.0
2023-05-15T01:58:18.000Z,16000.0
2023-05-15T01:59:18.000Z,16000.0
2023-05-15T02:00:18.000Z,16000.0
2023-05-15T02:01:18.000Z,16000.0
2023-05-15T02:02:18.000Z,16000.0
2023-05-15T02:03:17.000Z,16000.0
2023-05-15T02:04:18.000Z,16000.0
2023-05-15T02:05:18.000Z,16000.0
2023-05-15T02:06:18.000Z,16000.0
2023-05-15T02:07:18.000Z,16000.0
2023-05-15T02:08:19.000Z,16000.0
2023-05-15T02:09:18.000Z,16000.0
2023-05-15T02:10:18.000Z,16000.0
2023-05-15T02:11:17.000Z,16000.0
2023-05-15T02:12:18.000Z,16000.0
2023-05-15T02:13:18.000Z,16000.0
2023-05-15T02:14:18.000Z,16000.0
2023-05-15T02:15:18.000Z,16000.0
2023-05-15T02:16:17.000Z,16000.0
2023-05-15T02:17:18.000Z,16000.0
2023-05-15T02:18:18.000Z,16000.0
2023-05-15T02:19:18.000Z,16000.0
2023-05-15T02:20:18.000Z,16000.0
2023-05-15T02:21:19.000Z,16000.0
2023-05-15T02:22:18.000Z,16000.0
2023-05-15T02:23:18.000Z,16000.0
2023-05-15T02:24:19.000Z,16000.0
2023-05-15T02:25:18.000Z,16000.0
2023-05-15T02:26:18.000Z,16000.0
2023-05-15T02:27:17.000Z,16000.0
2023-05-15T02:28:18.000Z,16000.0
2023-05-15T02:29:18.000Z,16000.0
2023-05-15T02:30:18.000Z,16000.0
2023-05-15T02:31:18.000Z,16000.0
2023-05-15T02:32:19.000Z,16000.0
2023-05-15T02:33:18.000Z,16000.0
2023-05-15T02:34:18.000Z,16000.0
2023-05-15T02:35:17.000Z,16000.0
2023-05-15T02:36:18.000Z,16000.0
2023-05-15T02:37:18.000Z,16000.0
2023-05-15T02:38:18.000Z,16000.0
2023-05-15T02:39:18.000Z,16000.0
2023-05-15T02:40:19.000Z,16000.0
2023-05-15T02:41:18.000Z,16000.0
2023-05-15T02:42:18.000Z,16000.0
2023-05-15T02:43:18.000Z,16000.0
2023-05-15T02:44:18.000Z,16000.0
2023-05-15T02:45:18.000Z,16000.0
2023-05-15T02:46:18.000Z,16000.0
2023-05-15T02:47:18.000Z,16000.0
2023-05-15T02:48:17.000Z,16000.0
2023-05-15T02:49:18.000Z,16000.0
2023-05-15T02:50:18.000Z,16000.0
2023-05-15T02:51:18.000Z,16000.0
2023-05-15T02:52:18.000Z,16000.0
2023-05-15T02:53:19.000Z,16000.0
2023-05-15T02:54:18.000Z,16000.0
2023-05-15T02:55:18.000Z,16000.0
2023-05-15T02:56:17.000Z,16000.0
2023-05-15T02:57:18.000Z,16000.0
2023-05-15T02:58:18.000Z,16000.0
2023-05-15T02:59:18.000Z,16000.0
2023-05-15T03:00:18.000Z,16000.0
2023-05-15T03:01:17.000Z,16000.0
2023-05-15T03:02:18.000Z,16000.0
2023-05-15T03:03:18.000Z,16000.0
2023-05-15T03:04:18.000Z,16000.0
2023-05-15T03:05:18.000Z,16000.0
2023-05-15T03:06:19.000Z,16000.0
2023-05-15T03:07:18.000Z,16000.0
2023-05-15T03:08:18.000Z,16000.0
2023-05-15T03:09:17.000Z,16000.0
2023-05-15T03:10:18.000Z,16000.0
2023-05-15T03:11:18.000Z,16000.0
2023-05-15T03:12:18.000Z,16000.0
2023-05-15T03:13:18.000Z,16000.0
2023-05-15T03:14:17.000Z,16000.0
2023-05-15T03:15:18.000Z,16000.0
2023-05-15T03:16:18.000Z,16000.0
2023-05-15T03:17:18.000Z,16000.0
2023-05-15T03:18:18.000Z,16000.0
2023-05-15T03:19:19.000Z,16000.0
2023-05-15T03:20:18.000Z,16000.0
2023-05-15T03:21:18.000Z,16000.0
2023-05-15T03:22:17.000Z,16000.0
2023-05-15T03:23:18.000Z,16000.0
2023-05-15T03:24:18.000Z,16000.0
2023-05-15T03:25:17.000Z,16000.0
2023-05-15T03:26:18.000Z,16000.0
2023-05-15T03:27:18.000Z,16000.0
2023-05-15T03:28:18.000Z,16000.0
2023-05-15T03:29:18.000Z,16000.0
2023-05-15T03:30:19.000Z,16000.0
2023-05-15T03:31:18.000Z,16000.0
2023-05-15T03:32:18.000Z,16000.0
2023-05-15T03:33:17.000Z,16000.0
2023-05-15T03:34:18.000Z,16000.0
2023-05-15T03:35:18.000Z,16000.0
2023-05-15T03:36:18.000Z,16000.0
2023-05-15T03:37:18.000Z,16000.0
2023-05-15T03:38:19.000Z,16000.0
2023-05-15T03:39:18.000Z,16000.0
2023-05-15T03:40:18.000Z,16000.0
2023-05-15T03:41:17.000Z,16000.0
2023-05-15T03:42:18.000Z,16000.0
2023-05-15T03:43:19.000Z,16000.0
2023-05-15T03:44:18.000Z,16000.0
2023-05-15T03:45:18.000Z,16000.0
2023-05-15T03:46:17.000Z,16000.0
2023-05-15T03:47:18.000Z,16000.0
2023-05-15T03:48:18.000Z,16000.0
2023-05-15T03:49:18.000Z,16000.0
2023-05-15T03:50:18.000Z,16000.0
2023-05-15T03:51:19.000Z,16000.0
2023-05-15T03:52:18.000Z,16000.0
2023-05-15T03:53:18.000Z,16000.0
2023-05-15T03:54:18.000Z,13777.0
2023-05-15T03:55:18.000Z,10678.0
2023-05-15T03:56:18.000Z,10165.0
2023-05-15T03:57:18.000Z,9678.0
2023-05-15T03:58:18.000Z,10313.0
2023-05-15T03:59:17.000Z,10164.0
2023-05-15T04:00:18.000Z,10370.0
2023-05-15T04:01:18.000Z,12045.0
2023-05-15T04:02:18.000Z,13530.0
2023-05-15T04:03:18.000Z,14737.0
2023-05-15T04:04:19.000Z,14921.0
2023-05-15T04:05:18.000Z,13190.0
2023-05-15T04:06:18.000Z,12861.0
2023-05-15T04:07:17.000Z,12396.0
2023-05-15T04:08:18.000Z,12244.0
2023-05-15T04:09:18.000Z,11275.0
2023-05-15T04:10:18.000Z,9768.0
2023-05-15T04:11:18.000Z,8655.0
2023-05-15T04:12:17.000Z,8583.0
2023-05-15T04:13:18.000Z,8363.0
2023-05-15T04:14:18.000Z,8531.0
2023-05-15T04:15:18.000Z,9182.0
2023-05-15T04:16:18.000Z,10394.0
2023-05-15T04:17:19.000Z,10777.0
2023-05-15T04:18:18.000Z,10435.0
2023-05-15T04:19:18.000Z,10627.0
2023-05-15T04:20:17.000Z,11824.0
2023-05-15T04:21:18.000Z,14245.0
2023-05-15T04:22:18.000Z,15639.0
2023-05-15T04:23:18.000Z,15933.0
2023-05-15T04:24:18.000Z,16000.0
2023-05-15T04:25:18.000Z,16000.0
2023-05-15T04:26:18.000Z,16000.0
2023-05-15T04:27:18.000Z,16000.0
2023-05-15T04:28:17.000Z,16000.0
2023-05-15T04:29:18.000Z,16000.0
2023-05-15T04:30:18.000Z,16000.0
2023-05-15T04:31:17.000Z,16000.0
2023-05-15T04:32:18.000Z,16000.0
2023-05-15T04:33:18.000Z,16000.0
2023-05-15T04:34:18.000Z,16000.0
2023-05-15T04:35:18.000Z,16000.0
2023-05-15T04:36:17.000Z,16000.0
2023-05-15T04:37:18.000Z,16000.0
2023-05-15T04:38:18.000Z,16000.0
2023-05-15T04:39:18.000Z,16000.0
2023-05-15T04:40:18.000Z,16000.0
2023-05-15T04:41:19.000Z,16000.0
2023-05-15T04:42:18.000Z,16000.0
2023-05-15T04:43:18.000Z,16000.0
2023-05-15T04:44:17.000Z,16000.0
2023-05-15T04:45:18.000Z,16000.0
2023-05-15T04:46:18.000Z,16000.0
2023-05-15T04:47:18.000Z,16000.0
2023-05-15T04:48:18.000Z,16000.0
2023-05-15T04:49:17.000Z,16000.0
2023-05-15T04:50:18.000Z,16000.0
2023-05-15T04:51:18.000Z,16000.0
2023-05-15T04:52:18.000Z,16000.0
2023-05-15T04:53:18.000Z,16000.0
2023-05-15T04:54:19.000Z,16000.0
2023-05-15T04:55:18.000Z,16000.0
2023-05-15T04:56:18.000Z,16000.0
2023-05-15T04:57:17.000Z,16000.0
2023-05-15T04:58:18.000Z,16000.0
2023-05-15T04:59:18.000Z,16000.0
2023-05-15T05:00:18.000Z,16000.0
2023-05-15T05:01:18.000Z,16000.0
2023-05-15T05:02:17.000Z,16000.0
2023-05-15T05:03:18.000Z,16000.0
2023-05-15T05:04:18.000Z,16000.0
2023-05-15T05:05:18.000Z,16000.0
2023-05-15T05:06:18.000Z,16000.0
2023-05-15T05:07:19.000Z,16000.0
2023-05-15T05:08:18.000Z,16000.0
2023-05-15T05:09:18.000Z,16000.0
2023-05-15T05:10:17.000Z,16000.0
2023-05-15T05:11:18.000Z,16000.0
2023-05-15T05:12:18.000Z,16000.0
2023-05-15T05:13:18.000Z,16000.0
2023-05-15T05:14:18.000Z,16000.0
2023-05-15T05:15:17.000Z,16000.0
2023-05-15T05:16:18.000Z,16000.0
2023-05-15T05:17:18.000Z,16000.0
2023-05-15T05:18:18.000Z,16000.0
2023-05-15T05:19:18.000Z,16000.0
2023-05-15T05:20:19.000Z,16000.0
2023-05-15T05:21:18.000Z,16000.0
2023-05-15T05:22:18.000Z,16000.0
2023-05-15T05:23:19.000Z,16000.0
2023-05-15T05:24:18.000Z,16000.0
2023-05-15T05:25:18.000Z,16000.0
2023-05-15T05:26:17.000Z,16000.0
2023-05-15T05:27:18.000Z,16000.0
2023-05-15T05:28:18.000Z,16000.0
2023-05-15T05:29:18.000Z,16000.0
2023-05-15T05:30:18.000Z,16000.0
2023-05-15T05:31:19.000Z,16000.0
2023-05-15T05:32:18.000Z,16000.0
2023-05-15T05:33:18.000Z,16000.0
2023-05-15T05:34:17.000Z,16000.0
2023-05-15T05:35:18.000Z,16000.0
2023-05-15T05:36:18.000Z,16000.0
2023-05-15T05:37:18.000Z,16000.0
2023-05-15T05:38:18.000Z,16000.0
2023-05-15T05:39:17.000Z,16000.0
2023-05-15T05:40:18.000Z,16000.0
2023-05-15T05:41:18.000Z,16000.0
2023-05-15T05:42:18.000Z,16000.0
2023-05-15T05:43:18.000Z,16000.0
2023-05-15T05:44:19.000Z,16000.0
2023-05-15T05:45:18.000Z,16000.0
2023-05-15T05:46:18.000Z,16000.0
2023-05-15T05:47:17.000Z,16000.0
2023-05-15T05:48:18.000Z,16000.0
2023-05-15T05:49:18.000Z,16000.0
2023-05-15T05:50:18.000Z,16000.0
2023-05-15T05:51:18.000Z,16000.0
2023-05-15T05:52:17.000Z,16000.0
2023-05-15T05:53:18.000Z,16000.0
2023-05-15T05:54:18.000Z,16000.0
2023-05-15T05:55:18.000Z,16000.0
2023-05-15T05:56:18.000Z,16000.0
2023-05-15T05:57:19.000Z,16000.0
2023-05-15T05:58:18.000Z,16000.0
2023-05-15T06:00:17.000Z,16000.0
2023-05-15T06:01:18.000Z,16000.0
2023-05-15T06:02:18.000Z,16000.0
2023-05-15T06:03:18.000Z,16000.0
2023-05-15T06:04:18.000Z,13859.0
2023-05-15T06:05:17.000Z,14499.0
2023-05-15T06:06:18.000Z,13992.0
2023-05-15T06:07:18.000Z,12575.0
2023-05-15T06:08:18.000Z,12872.0
2023-05-15T06:09:18.000Z,11658.0
2023-05-15T06:10:19.000Z,12055.0
2023-05-15T06:11:18.000Z,13011.0
2023-05-15T06:12:18.000Z,12646.0
2023-05-15T06:13:17.000Z,11856.0
2023-05-15T06:14:18.000Z,12081.0
2023-05-15T06:15:18.000Z,11100.0
2023-05-15T06:16:18.000Z,12516.0
2023-05-15T06:17:18.000Z,12703.0
2023-05-15T06:18:17.000Z,12053.0
2023-05-15T06:19:18.000Z,13009.0
2023-05-15T06:20:18.000Z,14320.0
2023-05-15T06:21:18.000Z,14708.0
2023-05-15T06:22:18.000Z,15472.0
2023-05-15T06:23:18.000Z,15545.0
2023-05-15T06:24:17.000Z,16000.0
2023-05-15T06:25:18.000Z,16000.0
2023-05-15T06:26:18.000Z,15483.0
2023-05-15T06:27:18.000Z,13011.0
2023-05-15T06:28:18.000Z,13833.0
2023-05-15T06:29:17.000Z,14313.0
2023-05-15T06:30:18.000Z,13251.0
2023-05-15T06:31:18.000Z,12301.0
2023-05-15T06:32:18.000Z,11054.0
2023-05-15T06:33:18.000Z,10657.0
2023-05-15T06:34:18.000Z,10156.0
2023-05-15T06:35:18.000Z,10053.0
2023-05-15T06:36:18.000Z,9755.0
2023-05-15T06:37:17.000Z,9812.0
2023-05-15T06:38:18.000Z,9241.0
2023-05-15T06:39:18.000Z,10171.0
2023-05-15T06:40:18.000Z,9457.0
2023-05-15T06:41:18.000Z,9266.0
2023-05-15T06:42:17.000Z,9765.0
2023-05-15T06:43:18.000Z,9932.0
2023-05-15T06:44:18.000Z,9804.0
2023-05-15T06:45:17.000Z,10496.0
2023-05-15T06:46:18.000Z,11664.0
2023-05-15T06:47:19.000Z,12290.0
2023-05-15T06:48:18.000Z,12279.0
2023-05-15T06:49:18.000Z,13614.0
2023-05-15T06:50:17.000Z,13643.0
2023-05-15T06:51:18.000Z,12155.0
2023-05-15T06:52:18.000Z,12585.0
2023-05-15T06:53:18.000Z,12541.0
2023-05-15T06:54:18.000Z,13800.0
2023-05-15T06:55:17.000Z,12404.0
2023-05-15T06:56:18.000Z,12831.0
2023-05-15T06:57:18.000Z,12213.0
2023-05-15T06:58:18.000Z,12424.0
2023-05-15T06:59:18.000Z,12801.0
2023-05-15T07:00:18.000Z,12902.0
2023-05-15T07:01:18.000Z,12953.0
2023-05-15T07:02:18.000Z,12907.0
2023-05-15T07:03:17.000Z,13393.0
2023-05-15T07:04:18.000Z,13078.0
2023-05-15T07:05:18.000Z,12075.0
2023-05-15T07:06:18.000Z,10857.0
2023-05-15T07:07:18.000Z,11278.0
2023-05-15T07:08:17.000Z,11999.0
2023-05-15T07:09:18.000Z,11007.0
2023-05-15T07:10:18.000Z,10617.0
2023-05-15T07:11:17.000Z,10519.0
2023-05-15T07:12:18.000Z,9928.0
2023-05-15T07:13:18.000Z,10408.0
2023-05-15T07:14:18.000Z,10053.0
2023-05-15T07:15:18.000Z,10576.0
2023-05-15T07:16:17.000Z,11091.0
2023-05-15T07:17:18.000Z,10823.0
2023-05-15T07:18:18.000Z,11608.0
2023-05-15T07:19:18.000Z,11369.0
2023-05-15T07:20:18.000Z,11473.0
2023-05-15T07:21:17.000Z,12468.0
2023-05-15T07:22:18.000Z,12333.0
2023-05-15T07:23:18.000Z,12016.0
2023-05-15T07:24:19.000Z,13347.0
2023-05-15T07:25:18.000Z,14685.0
2023-05-15T07:26:18.000Z,14555.0
2023-05-15T07:27:17.000Z,14077.0
2023-05-15T07:28:18.000Z,15036.0
2023-05-15T07:29:18.000Z,14799.0
2023-05-15T07:30:18.000Z,16000.0
2023-05-15T07:31:18.000Z,16000.0
2023-05-15T07:32:19.000Z,16000.0
2023-05-15T07:33:18.000Z,16000.0
2023-05-15T07:34:18.000Z,16000.0
2023-05-15T07:35:17.000Z,16000.0
2023-05-15T07:36:18.000Z,16000.0
2023-05-15T07:37:18.000Z,16000.0
2023-05-15T07:38:18.000Z,16000.0
2023-05-15T07:39:18.000Z,16000.0
2023-05-15T07:40:17.000Z,16000.0
2023-05-15T07:41:18.000Z,16000.0
2023-05-15T07:42:18.000Z,16000.0
2023-05-15T07:43:18.000Z,16000.0
2023-05-15T07:44:18.000Z,16000.0
2023-05-15T07:45:18.000Z,16000.0
2023-05-15T07:46:18.000Z,16000.0
2023-05-15T07:47:18.000Z,16000.0
2023-05-15T07:48:17.000Z,16000.0
2023-05-15T07:49:18.000Z,16000.0
2023-05-15T07:50:18.000Z,16000.0
2023-05-15T07:51:18.000Z,16000.0
2023-05-15T07:52:18.000Z,16000.0
2023-05-15T07:53:17.000Z,16000.0
2023-05-15T07:54:18.000Z,16000.0
2023-05-15T07:55:18.000Z,16000.0
2023-05-15T07:56:17.000Z,16000.0
2023-05-15T07:57:18.000Z,16000.0
2023-05-15T07:58:19.000Z,16000.0
2023-05-15T07:59:18.000Z,16000.0
2023-05-15T08:00:18.000Z,16000.0
2023-05-15T08:01:17.000Z,16000.0
2023-05-15T08:02:18.000Z,16000.0
2023-05-15T08:03:18.000Z,16000.0
2023-05-15T08:04:18.000Z,16000.0
2023-05-15T08:05:18.000Z,16000.0
2023-05-15T08:06:17.000Z,16000.0
2023-05-15T08:07:18.000Z,16000.0
2023-05-15T08:08:18.000Z,16000.0
2023-05-15T08:09:18.000Z,16000.0
2023-05-15T08:10:18.000Z,16000.0
2023-05-15T08:11:18.000Z,16000.0
2023-05-15T08:12:18.000Z,16000.0
2023-05-15T08:13:18.000Z,16000.0
2023-05-15T08:14:17.000Z,16000.0
2023-05-15T08:15:18.000Z,16000.0
2023-05-15T08:16:18.000Z,16000.0
2023-05-15T08:17:18.000Z,16000.0
2023-05-15T08:18:18.000Z,16000.0
2023-05-15T08:19:17.000Z,16000.0
2023-05-15T08:20:18.000Z,16000.0
2023-05-15T08:21:18.000Z,16000.0
2023-05-15T08:22:17.000Z,16000.0
2023-05-15T08:23:18.000Z,16000.0
2023-05-15T08:24:18.000Z,16000.0
2023-05-15T08:25:17.000Z,16000.0
2023-05-15T08:26:18.000Z,16000.0
2023-05-15T08:27:18.000Z,16000.0
2023-05-15T08:28:18.000Z,16000.0
2023-05-15T08:29:18.000Z,16000.0
2023-05-15T08:30:17.000Z,16000.0
2023-05-15T08:31:18.000Z,16000.0
2023-05-15T08:32:18.000Z,16000.0
2023-05-15T08:33:17.000Z,16000.0
2023-05-15T08:34:18.000Z,16000.0
2023-05-15T08:35:18.000Z,16000.0
2023-05-15T08:36:18.000Z,16000.0
2023-05-15T08:37:18.000Z,16000.0
2023-05-15T08:38:17.000Z,16000.0
2023-05-15T08:39:18.000Z,16000.0
2023-05-15T08:40:18.000Z,16000.0
2023-05-15T08:41:18.000Z,16000.0
2023-05-15T08:42:18.000Z,16000.0
2023-05-15T08:43:17.000Z,16000.0
2023-05-15T08:44:18.000Z,16000.0
2023-05-15T08:45:18.000Z,16000.0
2023-05-15T08:46:17.000Z,16000.0
2023-05-15T08:47:18.000Z,16000.0
2023-05-15T08:48:18.000Z,16000.0
2023-05-15T08:49:18.000Z,16000.0
2023-05-15T08:50:18.000Z,16000.0
2023-05-15T08:51:17.000Z,16000.0
2023-05-15T08:52:18.000Z,16000.0
2023-05-15T08:53:18.000Z,16000.0
2023-05-15T08:54:18.000Z,16000.0
2023-05-15T08:55:18.000Z,16000.0
2023-05-15T08:56:19.000Z,16000.0
2023-05-15T08:57:18.000Z,16000.0
2023-05-15T08:58:18.000Z,16000.0
2023-05-15T08:59:17.000Z,16000.0
2023-05-15T09:00:18.000Z,16000.0
2023-05-15T09:01:18.000Z,16000.0
2023-05-15T09:02:18.000Z,16000.0
2023-05-15T09:03:18.000Z,16000.0
2023-05-15T09:04:17.000Z,16000.0
2023-05-15T09:05:18.000Z,16000.0
2023-05-15T09:06:18.000Z,16000.0
2023-05-15T09:07:18.000Z,16000.0
2023-05-15T09:08:18.000Z,16000.0
2023-05-15T09:09:17.000Z,16000.0
2023-05-15T09:10:18.000Z,16000.0
2023-05-15T09:11:18.000Z,16000.0
2023-05-15T09:12:17.000Z,16000.0
2023-05-15T09:13:18.000Z,16000.0
2023-05-15T09:14:18.000Z,16000.0
2023-05-15T09:15:18.000Z,16000.0
2023-05-15T09:16:18.000Z,16000.0
2023-05-15T09:17:17.000Z,16000.0
2023-05-15T09:18:18.000Z,16000.0
2023-05-15T09:19:18.000Z,16000.0
2023-05-15T09:20:18.000Z,16000.0
2023-05-15T09:21:18.000Z,16000.0
2023-05-15T09:22:18.000Z,16000.0
2023-05-15T09:23:17.000Z,16000.0
2023-05-15T09:24:18.000Z,16000.0
2023-05-15T09:25:18.000Z,16000.0
2023-05-15T09:26:18.000Z,16000.0
2023-05-15T09:27:18.000Z,16000.0
2023-05-15T09:28:17.000Z,16000.0
2023-05-15T09:29:18.000Z,16000.0
2023-05-15T09:30:18.000Z,16000.0
2023-05-15T09:31:18.000Z,16000.0
2023-05-15T09:32:18.000Z,16000.0
2023-05-15T09:33:18.000Z,16000.0
2023-05-15T09:34:18.000Z,16000.0
2023-05-15T09:35:18.000Z,16000.0
2023-05-15T09:36:17.000Z,16000.0
2023-05-15T09:37:18.000Z,16000.0
2023-05-15T09:38:18.000Z,16000.0
2023-05-15T09:39:18.000Z,16000.0
2023-05-15T09:40:18.000Z,16000.0
2023-05-15T09:41:17.000Z,16000.0
2023-05-15T09:42:18.000Z,16000.0
2023-05-15T09:43:18.000Z,16000.0
2023-05-15T09:44:18.000Z,16000.0
2023-05-15T09:45:18.000Z,16000.0
2023-05-15T09:46:17.000Z,16000.0
2023-05-15T09:47:18.000Z,16000.0
2023-05-15T09:48:18.000Z,16000.0
2023-05-15T09:49:17.000Z,16000.0
2023-05-15T09:50:18.000Z,16000.0
2023-05-15T09:51:18.000Z,16000.0
2023-05-15T09:52:18.000Z,16000.0
2023-05-15T09:53:18.000Z,16000.0
2023-05-15T09:54:17.000Z,16000.0
2023-05-15T09:55:18.000Z,16000.0
2023-05-15T09:56:18.000Z,16000.0
2023-05-15T09:57:18.000Z,16000.0
2023-05-15T09:58:18.000Z,16000.0
2023-05-15T09:59:18.000Z,16000.0
2023-05-15T10:00:18.000Z,16000.0
2023-05-15T10:01:18.000Z,16000.0
2023-05-15T10:02:17.000Z,16000.0
2023-05-15T10:03:18.000Z,16000.0
2023-05-15T10:04:18.000Z,16000.0
2023-05-15T10:05:18.000Z,16000.0
2023-05-15T10:06:18.000Z,16000.0
2023-05-15T10:07:17.000Z,16000.0
2023-05-15T10:08:18.000Z,16000.0
2023-05-15T10:09:18.000Z,16000.0
2023-05-15T10:10:17.000Z,16000.0
2023-05-15T10:11:18.000Z,16000.0
2023-05-15T10:12:19.000Z,16000.0
2023-05-15T10:13:18.000Z,16000.0
2023-05-15T10:14:18.000Z,16000.0
2023-05-15T10:15:17.000Z,16000.0
2023-05-15T10:16:18.000Z,16000.0
2023-05-15T10:17:18.000Z,16000.0
2023-05-15T10:18:18.000Z,16000.0
2023-05-15T10:19:18.000Z,16000.0
2023-05-15T10:20:17.000Z,16000.0
2023-05-15T10:21:18.000Z,16000.0
2023-05-15T10:22:18.000Z,16000.0
2023-05-15T10:23:17.000Z,16000.0
2023-05-15T10:24:18.000Z,16000.0
2023-05-15T10:25:18.000Z,16000.0
2023-05-15T10:26:17.000Z,16000.0
2023-05-15T10:27:18.000Z,16000.0
2023-05-15T10:28:18.000Z,16000.0
2023-05-15T10:29:18.000Z,16000.0
2023-05-15T10:30:18.000Z,16000.0
2023-05-15T10:31:17.000Z,16000.0
2023-05-15T10:32:18.000Z,16000.0
2023-05-15T10:33:18.000Z,16000.0
2023-05-15T10:34:18.000Z,16000.0
2023-05-15T10:35:18.000Z,16000.0
2023-05-15T10:36:18.000Z,16000.0
2023-05-15T10:37:18.000Z,16000.0
2023-05-15T10:38:18.000Z,16000.0
2023-05-15T10:39:17.000Z,16000.0
2023-05-15T10:40:18.000Z,16000.0
2023-05-15T10:41:18.000Z,16000.0
2023-05-15T10:42:18.000Z,16000.0
2023-05-15T10:43:18.000Z,16000.0
2023-05-15T10:44:17.000Z,16000.0
2023-05-15T10:45:18.000Z,16000.0
2023-05-15T10:46:18.000Z,16000.0
2023-05-15T10:47:17.000Z,16000.0
2023-05-15T10:48:18.000Z,16000.0
2023-05-15T10:49:18.000Z,16000.0
2023-05-15T10:50:18.000Z,16000.0
2023-05-15T10:51:18.000Z,16000.0
2023-05-15T10:52:17.000Z,16000.0
2023-05-15T10:53:18.000Z,16000.0
2023-05-15T10:54:18.000Z,16000.0
2023-05-15T10:55:18.000Z,16000.0
2023-05-15T10:56:18.000Z,16000.0
2023-05-15T10:57:17.000Z,16000.0
2023-05-15T10:58:18.000Z,16000.0
2023-05-15T10:59:18.000Z,16000.0
2023-05-15T11:00:18.000Z,16000.0
2023-05-15T11:01:18.000Z,16000.0
2023-05-15T11:02:18.000Z,16000.0
2023-05-15T11:03:18.000Z,16000.0
2023-05-15T11:04:18.000Z,16000.0
2023-05-15T11:05:17.000Z,16000.0
2023-05-15T11:06:18.000Z,16000.0
2023-05-15T11:07:18.000Z,16000.0
2023-05-15T11:08:18.000Z,16000.0
2023-05-15T11:09:18.000Z,16000.0
2023-05-15T11:10:17.000Z,16000.0
2023-05-15T11:11:18.000Z,16000.0
2023-05-15T11:12:18.000Z,16000.0
2023-05-15T11:13:17.000Z,16000.0
2023-05-15T11:14:18.000Z,16000.0
2023-05-15T11:15:18.000Z,16000.0
2023-05-15T11:16:18.000Z,16000.0
2023-05-15T11:17:18.000Z,16000.0
2023-05-15T11:18:17.000Z,16000.0
2023-05-15T11:19:18.000Z,16000.0
2023-05-15T11:20:18.000Z,16000.0
2023-05-15T11:21:18.000Z,16000.0
2023-05-15T11:22:18.000Z,16000.0
2023-05-15T11:23:18.000Z,16000.0
2023-05-15T11:24:18.000Z,16000.0
2023-05-15T11:25:18.000Z,16000.0
2023-05-15T11:26:17.000Z,16000.0
2023-05-15T11:27:18.000Z,16000.0
2023-05-15T11:28:18.000Z,16000.0
2023-05-15T11:29:17.000Z,16000.0
2023-05-15T11:30:18.000Z,16000.0
2023-05-15T11:31:18.000Z,16000.0
2023-05-15T11:32:18.000Z,16000.0
2023-05-15T11:33:18.000Z,16000.0
2023-05-15T11:34:17.000Z,16000.0
2023-05-15T11:35:18.000Z,16000.0
2023-05-15T11:36:18.000Z,16000.0
2023-05-15T11:37:17.000Z,16000.0
2023-05-15T11:38:18.000Z,16000.0
2023-05-15T11:39:18.000Z,16000.0
2023-05-15T11:40:18.000Z,16000.0
2023-05-15T11:41:18.000Z,16000.0
2023-05-15T11:42:17.000Z,16000.0
2023-05-15T11:43:18.000Z,16000.0
2023-05-15T11:44:18.000Z,16000.0
2023-05-15T11:45:18.000Z,16000.0
2023-05-15T11:46:18.000Z,16000.0
2023-05-15T11:47:17.000Z,16000.0
2023-05-15T11:48:18.000Z,16000.0
2023-05-15T11:49:18.000Z,16000.0
2023-05-15T11:50:17.000Z,16000.0
2023-05-15T11:51:18.000Z,16000.0
2023-05-15T11:52:18.000Z,16000.0
2023-05-15T11:53:18.000Z,16000.0
2023-05-15T11:54:18.000Z,16000.0
2023-05-15T11:55:17.000Z,16000.0
2023-05-15T11:56:18.000Z,16000.0
2023-05-15T11:57:18.000Z,16000.0
2023-05-15T11:58:18.000Z,16000.0
2023-05-15T11:59:18.000Z,16000.0
2023-05-15T12:00:17.000Z,16000.0
2023-05-15T12:01:18.000Z,16000.0
2023-05-15T12:02:18.000Z,16000.0
2023-05-15T12:03:17.000Z,16000.0
2023-05-15T12:04:18.000Z,16000.0
2023-05-15T12:05:18.000Z,16000.0
2023-05-15T12:06:18.000Z,16000.0
2023-05-15T12:07:18.000Z,16000.0